Tupper Lake, NY (12986)

2:16 AM EDT on April 27, 2017 (GMT -0400)
French Village | | Change Station

Elev 1621 ft 44.22 °N, 74.46 °W | Updated 2 seconds ago

Partly Cloudy
Partly Cloudy
55.6 °F
Feels Like 55.6 °F
N
0.7
Wind Variable Wind from SE
Gusts 2.2 mph

Today
High -- | Low -- °F
--% Chance of Precip.
Yesterday
High -- | Low -- °F
Precip. -- in
Pressure 29.81 in
Visibility 0.2 miles
Clouds
Dew Point 54 °F
Humidity 94%
Rainfall 0.00 in
Snow Depth Not available.
5:54 AM 7:57 PM
New Moon, 1% visible
METAR KSLK 270551Z AUTO 00000KT 1/4SM FG VV001 06/06 A2981 RMK AO2 SLP094 T00610061 10167 20061 58001 TSNO
Pressure 29.81 in
Visibility 0.2 miles
Clouds
Dew Point 54 °F
Humidity 94%
Rainfall 0.00 in
Snow Depth Not available.
5:54 AM 7:57 PM
New Moon, 1% visible
METAR KSLK 270551Z AUTO 00000KT 1/4SM FG VV001 06/06 A2981 RMK AO2 SLP094 T00610061 10167 20061 58001 TSNO

Get Severe Weather Alerts

Thanks for signing up!

Be on the lookout for a verification email in your inbox.

You'll start receiving the daily forecast at 8 AM.

×

10-Day Weather Forecast

Almanac

Astronomy

Apr. 27, 2017 Rise Set
Actual Time
Civil Twilight
Nautical Twilight
Astronomical Twilight
Moon
Length of Visible Light
Length of Day
Tomorrow will be .
, % of the Moon is Illuminated

Today's Extremes

State Highs State Lows

Community

WunderPhotos

WunderBlog® & News

Nearby

Air Quality

  Air Quality AQ Index Pollutant
Not available.

Snow Depth

Station Depth Elevation

Earthquake Activity

City Distance Mag. Time & Date
Minimum magnitude displayed is 2.5.

Coastal Water Temperatures

Place Temperature

Stations

Nearby Weather Stations

Station Location Temp. Windchill Dew Point Humidity Wind Precip. Elev Updated Type
                   

Watches & Warnings

There are currently no watches in effect.